• Join FlightAware (Why Join?)
  • Login
  • US Flag 
07:19PM EDT


 

Airport Tracker/Info


-or-


 

Live Flight TrackerFlight Track Log ✈ SKW6528 ✈ 04-May-2013 ✈ KLAX - KPHX

Flight Track Log - Related Links

Times and Time Zones

All times are in EDT time to prevent confusion due to time zone crossing. See the SKW6528 flight status page for this flight to view local times or setup timezone preferences in your user account.

Time Position Orientation Groundspeed Altitude Reporting Facility
EDT Latitude Longitude Course Direction KTS MPH feet Rate Location/Type
08:48PM 33.9333 -118.4500 90° East 189 217 1,700  Level Southern California TRACON
08:49PM 33.8833 -118.5167 228° Southwest 256 295 4,000 2,460 Climbing Southern California TRACON
08:50PM 33.7574 -118.6098 132° Southeast  Level FlightAware Approximate
08:50PM 33.8278 -118.5314 192° South 255 293 6,700  Level Los Angeles Center
08:51PM 33.6792 -118.4919 101° East  Level FlightAware Approximate
08:51PM 33.7531 -118.5239 175° South 271 312 9,500  Level Los Angeles Center
08:52PM 33.6388 -118.3470 116° Southeast  Level FlightAware Approximate
08:52PM 33.6767 -118.4867 158° South 326 375 11,600  Level Los Angeles Center
08:53PM 33.6333 -118.1945 90° East  Level FlightAware Approximate
08:53PM 33.6503 -118.3536 103° East 354 407 15,000  Level Los Angeles Center
08:54PM 33.6456 -118.2369 93° East 361 415 17,600 2,340 Climbing Los Angeles Center
08:55PM 33.6444 -118.1131 91° East 374 430 19,800 2,040 Climbing Los Angeles Center
08:56PM 33.6439 -117.9819 90° East 394 453 21,800 1,920 Climbing Los Angeles Center
08:57PM 33.6433 -117.8483 90° East 404 465 23,800 1,740 Climbing Los Angeles Center
08:58PM 33.6428 -117.7086 90° East 417 480 25,400 1,920 Climbing Los Angeles Center
08:59PM 33.6417 -117.5386 90° East 425 489 27,800 1,860 Climbing Los Angeles Center
09:00PM 33.6408 -117.3942 90° East 434 499 29,300 1,440 Climbing Los Angeles Center
09:01PM 33.6403 -117.2458 90° East 444 511 30,800 1,380 Climbing Los Angeles Center
09:02PM 33.6378 -117.0972 91° East 448 516 32,200 900 Climbing Los Angeles Center
09:03PM 33.6364 -116.9425 91° East 464 534 32,700 600 Climbing Los Angeles Center
09:04PM 33.6356 -116.7686 90° East 487 560 33,500 720 Climbing Los Angeles Center
09:06PM 33.6333 -116.6000 91° East 501 577 34,400 660 Climbing Los Angeles Center
09:07PM 33.6306 -116.3950 91° East 510 587 35,000 240 Climbing Los Angeles Center
09:08PM 33.6283 -116.2253 91° East 509 586 35,000  Level Los Angeles Center
09:09PM 33.6253 -116.0561 91° East 506 582 35,000  Level Los Angeles Center
09:10PM 33.6214 -115.8917 92° East 494 568 35,000  Level Los Angeles Center
09:11PM 33.6183 -115.6986 91° East 485 558 35,000  Level Los Angeles Center
09:12PM 33.6131 -115.5353 92° East 488 562 35,000  Level Los Angeles Center
09:13PM 33.6089 -115.3719 92° East 489 563 35,000  Level Los Angeles Center
09:14PM 33.6058 -115.2100 91° East 486 559 35,000  Level Los Angeles Center
09:15PM 33.6014 -115.0489 92° East 485 558 35,000 -240 Level Los Angeles Center
09:16PM 33.5956 -114.8853 92° East 490 564 34,600 -1,320 Descending Los Angeles Center
09:17PM 33.5839 -114.7194 95° East 497 572 32,300 -2,400 Descending Los Angeles Center
09:18PM 33.5678 -114.6014 99° East 490 564 30,500 -2,220 Descending Albuquerque Center
09:19PM 33.5367 -114.4511 104° East 472 543 28,500 -1,680 Descending Albuquerque Center
09:20PM 33.5086 -114.3089 103° East 447 514 27,100 -1,380 Descending Albuquerque Center
09:21PM 33.4811 -114.1694 103° East 435 501 25,800 -1,080 Descending Albuquerque Center
09:22PM 33.4533 -114.0289 103° East 434 499 25,000 -840 Descending Albuquerque Center
09:23PM 33.4256 -113.8906 103° East 431 496 24,200 -1,320 Descending Albuquerque Center
09:24PM 33.3961 -113.7511 104° East 433 498 22,400 -1,800 Descending Albuquerque Center
09:25PM 33.3686 -113.6125 103° East 430 495 20,600 -1,680 Descending Albuquerque Center
09:26PM 33.3425 -113.4847 104° East 405 466 19,000 -1,800 Descending Albuquerque Center
09:27PM 33.3128 -113.3378 104° East 383 441 17,000 -1,560 Descending Albuquerque Center
09:28PM 33.2878 -113.2211 104° East 368 423 15,900 -900 Descending Albuquerque Center
09:29PM 33.2750 -113.1064 98° East 354 407 15,200 -540 Descending Albuquerque Center
09:30PM 33.2761 -112.9925 89° East 345 397 14,900 -180 Descending Albuquerque Center
09:31PM 33.2794 -112.8786 88° East 344 396 14,900  Level Albuquerque Center
09:32PM 33.2814 -112.7689 89° East 334 384 14,900  Level Albuquerque Center
09:33PM 33.2836 -112.6589 89° East 332 382 14,900 -600 Level Albuquerque Center
09:34PM 33.2869 -112.5575 88° East 329 379 13,700 -1,380 Descending Albuquerque Center
09:35PM 33.2886 -112.4514 89° East 321 369 12,200 -1,080 Descending Albuquerque Center
09:37PM 33.3000 -112.2833 85° East 244 281 10,700 -900 Descending Phoenix TRACON
09:37PM 33.2989 -112.2581 93° East 246 283 10,500 -840 Descending Albuquerque Center
09:38PM 33.3042 -112.1764 86° East 246 283 9,700 -840 Descending Albuquerque Center
09:39PM 33.3114 -112.0942 84° East 250 288 8,900 -780 Descending Albuquerque Center
09:40PM 33.3294 -112.0225 73° East 225 259 8,200 -900 Descending Albuquerque Center
09:41PM 33.3444 -111.9578 74° East 205 236 7,100 -1,080 Descending Albuquerque Center
09:42PM 33.3453 -111.8942 89° East 193 222 6,100 -1,020 Descending Albuquerque Center
09:43PM 33.3447 -111.8281 91° East 199 229 5,100 -600 Descending Albuquerque Center
09:44PM 33.3594 -111.7736 72° East 198 228 5,000 -600 Descending Albuquerque Center
09:45PM 33.4108 -111.7853 349° North 198 228 4,000 -600 Descending Albuquerque Center
09:46PM 33.4261 -111.8397 289° West 174 200 3,800 -600 Descending Albuquerque Center
09:47PM 33.4286 -111.8967 273° West 172 198 2,800 -1,020 Descending Albuquerque Center